Data for 12/28/2012

Time Sea-Level Adjusted Pressure Absolute Pressure Temperature Relative Humidity Dew Point   
(mb) (inHg) (mb) (inHg) (C) (F) (%) (C) (F)
00:05 1015 29.97 844 24.92 -3.9 25 63 -10 14
00:10 1015 29.97 844 24.92 -3.9 24.9 64 -9.8 14.3
00:15 1015 29.97 844 24.92 -3.9 24.9 64 -9.8 14.4
00:20 1015 29.97 844 24.92 -3.9 25 64 -9.7 14.5
00:25 1015 29.97 844 24.92 -3.9 25.1 65 -9.5 15
00:30 1015 29.97 844 24.92 -3.9 24.9 66 -9.5 15
00:35 1015 29.97 844 24.92 -4 24.8 66 -9.4 15
00:40 1015 29.97 844 24.92 -4 24.8 66 -9.4 15.1
00:45 1015 29.97 844 24.92 -3.9 25 66 -9.4 15.1
00:50 1015 29.97 844 24.92 -3.8 25.1 66 -9.3 15.3
00:55 1015 29.97 844 24.92 -3.8 25.1 66 -9.3 15.3
01:00 1015 29.97 844 24.92 -3.8 25.1 66 -9.3 15.3
01:05 1015 29.97 844 24.92 -3.8 25.2 66 -9.3 15.3
01:10 1015 29.97 844 24.92 -3.8 25.2 66 -9.2 15.5
01:15 1015 29.97 844 24.92 -3.8 25.1 67 -9.1 15.6
01:20 1015 29.97 844 24.92 -3.8 25.1 66 -9.2 15.5
01:25 1015 29.97 844 24.92 -3.8 25.2 67 -9.1 15.6
01:30 1015 29.97 844 24.92 -3.8 25.1 67 -9.2 15.5
01:35 1015 29.97 844 24.92 -3.9 25 67 -9.1 15.7
01:40 1015 29.97 844 24.92 -3.9 24.9 67 -9.1 15.6
01:45 1015 29.97 844 24.92 -4 24.9 67 -9.1 15.5
01:50 1015 29.97 844 24.92 -4 24.8 68 -9.1 15.6
01:55 1015 29.97 844 24.92 -4 24.9 68 -9.1 15.6
02:00 1015 29.97 844 24.92 -4 24.9 68 -9.1 15.7
02:05 1015 29.97 844 24.92 -4 24.8 68 -9.1 15.6
02:10 1015 29.97 844 24.92 -4 24.8 67 -9.2 15.4
02:15 1015 29.97 844 24.92 -4 24.8 68 -9.1 15.7
02:20 1015 29.97 844 24.92 -4.1 24.7 69 -9 15.8
02:25 1015 29.97 844 24.92 -4.1 24.6 69 -9.1 15.7
02:30 1015 29.97 844 24.92 -4.1 24.6 69 -9 15.8
02:35 1015 29.97 844 24.92 -4.2 24.5 69 -9 15.7
02:40 1015 29.97 844 24.92 -4.2 24.4 69 -9 15.8
02:45 1015 29.97 844 24.92 -4.2 24.4 70 -8.9 15.9
02:50 1015 29.97 844 24.92 -4.3 24.3 70 -8.9 15.9
02:55 1015 29.97 844 24.92 -4.3 24.2 70 -8.9 15.9
03:00 1015 29.97 844 24.92 -4.4 24.1 71 -8.8 16.1
03:05 1015 29.97 844 24.92 -4.5 23.9 72 -8.8 16.1
03:10 1015 29.97 844 24.92 -4.6 23.8 72 -8.9 16
03:15 1015 29.97 844 24.92 -4.6 23.8 72 -8.9 16.1
03:20 1015 29.97 844 24.92 -4.5 23.8 71 -9 15.9
03:25 1015 29.97 844 24.92 -4.6 23.7 71 -9.1 15.5
03:30 1015 29.97 844 24.92 -4.8 23.4 72 -9.1 15.6
03:35 1015 29.97 844 24.92 -4.9 23.2 72 -9.2 15.5
03:40 1015 29.97 844 24.92 -5 23.1 74 -9 15.9
03:45 1015 29.97 844 24.92 -5 22.9 74 -9 15.9
03:50 1015 29.97 844 24.92 -5.1 22.9 74 -9 15.9
03:55 1015 29.97 844 24.92 -5 23 72 -9.3 15.3
04:00 1015 29.97 844 24.92 -4.8 23.3 72 -9.1 15.6
04:05 1015 29.97 844 24.92 -4.8 23.4 73 -8.9 16
04:10 1015 29.97 844 24.92 -4.9 23.2 71 -9.5 15
04:15 1015 29.97 844 24.92 -4.7 23.5 71 -9.2 15.4
04:20 1015 29.97 844 24.92 -4.8 23.3 72 -9.2 15.5
04:25 1015 29.97 844 24.92 -4.7 23.6 65 -10.2 13.6
04:30 1015 29.97 844 24.92 -4.1 24.7 65 -9.7 14.5
04:35 1015 29.97 844 24.92 -3.9 25 65 -9.6 14.7
04:40 1015 29.97 844 24.92 -3.8 25.1 60 -10.5 13.1
04:45 1015 29.97 844 24.92 -3.5 25.7 60 -10.2 13.7
04:50 1015 29.97 844 24.92 -3.5 25.7 60 -10.1 13.9
04:55 1015 29.97 844 24.92 -3.5 25.8 62 -9.7 14.5
05:00 1015 29.97 844 24.92 -3.6 25.5 60 -10.2 13.6
05:05 1015 29.97 844 24.92 -3.5 25.6 59 -10.3 13.4
05:10 1015 29.97 844 24.92 -3.5 25.7 61 -10.1 13.9
05:15 1015 29.97 844 24.92 -3.5 25.7 61 -10.1 13.9
05:20 1015 29.97 844 24.92 -3.5 25.7 61 -9.9 14.2
05:25 1015 29.97 844 24.92 -3.5 25.7 62 -9.8 14.3
05:30 1015 29.97 844 24.92 -3.6 25.6 63 -9.6 14.8
05:35 1015 29.97 844 24.92 -3.7 25.4 64 -9.5 14.9
05:40 1015 29.97 844 24.92 -3.8 25.1 64 -9.7 14.5
05:45 1015 29.97 844 24.92 -3.8 25.1 64 -9.8 14.4
05:50 1015 29.97 844 24.92 -3.8 25.1 65 -9.6 14.8
05:55 1015 29.97 844 24.92 -3.9 25 65 -9.6 14.7
06:00 1015 29.97 844 24.92 -3.9 25 65 -9.6 14.8
06:05 1015 29.97 844 24.92 -3.8 25.1 65 -9.5 15
06:10 1015 29.97 845 24.95 -3.9 24.9 66 -9.5 15
06:15 1015 29.97 845 24.95 -4 24.8 65 -9.5 14.8
06:20 1015 29.97 845 24.95 -4 24.8 65 -9.6 14.7
06:25 1016 30 845 24.95 -4 24.7 65 -9.7 14.6
06:30 1016 30 845 24.95 -4 24.7 64 -9.8 14.3
06:35 1016 30 845 24.95 -4 24.8 64 -9.8 14.4
06:40 1016 30 845 24.95 -4 24.8 64 -9.9 14.2
06:45 1016 30 845 24.95 -4 24.8 64 -9.9 14.2
06:50 1016 30 845 24.95 -4 24.8 63 -10 14.1
06:55 1016 30 845 24.95 -4 24.8 64 -9.9 14.2
07:00 1016 30 845 24.95 -4 24.9 64 -9.8 14.4
07:05 1016 30 845 24.95 -4 24.8 64 -9.8 14.4
07:10 1016 30 845 24.95 -4.1 24.7 64 -9.8 14.3
07:15 1016 30 845 24.95 -4.1 24.6 64 -9.9 14.2
07:20 1016 30 845 24.95 -4.1 24.6 65 -9.8 14.3
07:25 1016 30 845 24.95 -4.1 24.6 65 -9.8 14.4
07:30 1016 30 845 24.95 -4.2 24.5 65 -9.9 14.2
07:35 1016 30 845 24.95 -4.2 24.5 65 -9.8 14.4
07:40 1016 30 845 24.95 -4.1 24.6 65 -9.7 14.5
07:45 1016 30 845 24.95 -4.2 24.5 65 -9.9 14.2
07:50 1016 30 845 24.95 -4.3 24.3 66 -9.6 14.7
07:55 1016 30 845 24.95 -4.6 23.7 68 -9.6 14.7
08:00 1016 30 845 24.95 -5.2 22.7 70 -9.8 14.3
08:05 1016 30 845 24.95 -5.4 22.4 70 -9.9 14.1
08:10 1016 30 845 24.95 -5.3 22.5 69 -10.1 13.9
08:15 1016 30 845 24.95 -5.3 22.5 69 -10.1 13.9
08:20 1016 30 845 24.95 -5.2 22.6 71 -9.7 14.5
08:25 1016 30 845 24.95 -5.3 22.5 70 -10 14
08:30 1016 30 845 24.95 -5.3 22.5 68 -10.2 13.6
08:35 1016 30 845 24.95 -5 23 67 -10.3 13.5
08:40 1016 30 845 24.95 -4.8 23.3 67 -10 14
08:45 1016 30 845 24.95 -4.7 23.5 67 -10 14
08:50 1016 30 845 24.95 -4.6 23.7 66 -10 13.9
08:55 1016 30 845 24.95 -4.5 23.9 67 -9.8 14.3
09:00 1016 30 845 24.95 -4.5 24 66 -9.9 14.2
09:05 1016 30 846 24.98 -4.4 24.1 65 -9.9 14.1
09:10 1016 30 846 24.98 -4.3 24.2 66 -9.8 14.3
09:15 1016 30 846 24.98 -4.2 24.4 65 -9.9 14.1
09:20 1016 30 846 24.98 -4.4 24.1 67 -9.6 14.8
09:25 1016 30 846 24.98 -4.7 23.5 68 -9.7 14.5
09:30 1017 30.03 846 24.98 -4.9 23.2 69 -9.8 14.3
09:35 1017 30.03 846 24.98 -5 23 69 -9.8 14.3
09:40 1017 30.03 846 24.98 -4.9 23.3 68 -9.8 14.3
09:45 1017 30.03 846 24.98 -4.7 23.6 67 -9.9 14.2
09:50 1017 30.03 846 24.98 -4.5 23.8 67 -9.8 14.3
09:55 1017 30.03 846 24.98 -4.4 24.1 66 -9.9 14.2
10:00 1017 30.03 846 24.98 -4.4 24.1 67 -9.6 14.6
10:05 1017 30.03 846 24.98 -4.5 23.9 66 -9.8 14.3
10:10 1017 30.03 846 24.98 -4.4 24 68 -9.5 15
10:15 1017 30.03 846 24.98 -4.4 24.1 65 -9.9 14.2
10:20 1017 30.03 846 24.98 -4.2 24.4 65 -9.8 14.4
10:25 1017 30.03 846 24.98 -4 24.8 64 -9.8 14.3
10:30 1017 30.03 846 24.98 -3.9 25.1 63 -9.9 14.3
10:35 1017 30.03 846 24.98 -3.7 25.3 62 -9.9 14.2
10:40 1017 30.03 846 24.98 -3.7 25.4 63 -9.8 14.3
10:45 1017 30.03 846 24.98 -3.6 25.5 62 -9.8 14.3
10:50 1017 30.03 847 25.01 -3.5 25.6 62 -9.8 14.3
10:55 1017 30.03 847 25.01 -3.5 25.7 62 -9.8 14.3
11:00 1017 30.03 847 25.01 -3.4 25.9 62 -9.7 14.5
11:05 1018 30.06 847 25.01 -3.2 26.2 61 -9.7 14.5
11:10 1018 30.06 847 25.01 -3.1 26.5 60 -9.8 14.3
11:15 1018 30.06 847 25.01 -3 26.6 60 -9.6 14.7
11:20 1018 30.06 847 25.01 -2.9 26.8 59 -9.7 14.5
11:25 1018 30.06 847 25.01 -2.7 27.1 59 -9.7 14.6
11:30 1018 30.06 847 25.01 -2.7 27.2 60 -9.4 15.1
11:35 1018 30.06 847 25.01 -2.6 27.4 58 -9.8 14.4
11:40 1018 30.06 847 25.01 -2.6 27.4 58 -9.8 14.4
11:45 1018 30.06 847 25.01 -2.6 27.2 59 -9.7 14.6
11:50 1018 30.06 847 25.01 -2.5 27.4 58 -9.6 14.7
11:55 1018 30.06 847 25.01 -2.9 26.9 59 -9.7 14.5
12:00 1018 30.06 847 25.01 -2.8 27 58 -9.9 14.1
12:05 1018 30.06 847 25.01 -2.6 27.3 57 -10 13.9
12:10 1018 30.06 847 25.01 -2.2 28.1 55 -10.1 13.8
12:15 1018 30.06 847 25.01 -1.9 28.6 54 -10.1 13.9
12:20 1018 30.06 847 25.01 -1.8 28.8 54 -9.9 14.1
12:25 1018 30.06 847 25.01 -1.7 28.9 54 -9.8 14.4
12:30 1018 30.06 847 25.01 -1.6 29.1 53 -9.9 14.1
12:35 1018 30.06 847 25.01 -1.6 29.1 54 -9.9 14.2
12:40 1018 30.06 847 25.01 -1.7 29 53 -10.1 13.7
12:45 1017 30.03 847 25.01 -1.3 29.6 52 -9.9 14.2
12:50 1017 30.03 847 25.01 -1 30.2 51 -10 13.9
12:55 1017 30.03 847 25.01 -1.1 30 50 -10.2 13.6
13:00 1017 30.03 847 25.01 -1 30.3 49 -10.3 13.5
13:05 1017 30.03 847 25.01 -0.7 30.8 49 -10.2 13.7
13:10 1017 30.03 847 25.01 -0.8 30.6 49 -10.3 13.5
13:15 1017 30.03 847 25.01 -0.9 30.3 48 -10.6 13
13:20 1017 30.03 847 25.01 -0.8 30.6 47 -10.9 12.5
13:25 1017 30.03 847 25.01 -0.8 30.6 49 -10.3 13.5
13:30 1017 30.03 847 25.01 -0.7 30.7 47 -10.7 12.7
13:35 1017 30.03 846 24.98 -0.8 30.6 49 -10.3 13.5
13:40 1017 30.03 846 24.98 -0.6 30.9 48 -10.3 13.4
13:45 1017 30.03 846 24.98 -0.3 31.4 47 -10.4 13.3
13:50 1017 30.03 846 24.98 -0.4 31.2 47 -10.3 13.5
13:55 1017 30.03 846 24.98 -0.6 31 47 -10.5 13.1
14:00 1017 30.03 846 24.98 0.4 32.8 45 -10.2 13.6
14:05 1017 30.03 846 24.98 1.2 34.2 43 -9.9 14.2
14:10 1017 30.03 846 24.98 1.3 34.4 42 -10.3 13.5
14:15 1017 30.03 846 24.98 0.8 33.4 42 -10.6 12.9
14:20 1017 30.03 846 24.98 0.6 33.1 41 -11 12.1
14:25 1017 30.03 846 24.98 0.7 33.3 41 -11.2 11.9
14:30 1017 30.03 846 24.98 0.5 32.9 41 -11.4 11.4
14:35 1017 30.03 846 24.98 0.8 33.4 40 -11.4 11.5
14:40 1017 30.03 846 24.98 1.1 33.9 39 -11.5 11.3
14:45 1017 30.03 846 24.98 0.9 33.6 40 -11.3 11.7
14:50 1017 30.03 846 24.98 0.8 33.5 40 -11.4 11.4
14:55 1017 30.03 846 24.98 0.3 32.6 41 -11.4 11.5
15:00 1017 30.03 846 24.98 0.2 32.4 42 -11.3 11.6
15:05 1017 30.03 846 24.98 0.7 33.2 41 -11.1 11.9
15:10 1017 30.03 846 24.98 0.5 32.8 41 -11.4 11.4
15:15 1017 30.03 846 24.98 0.5 32.9 40 -11.5 11.2
15:20 1017 30.03 846 24.98 0.8 33.5 40 -11.2 11.8
15:25 1017 30.03 846 24.98 0.7 33.3 39 -11.8 10.7
15:30 1017 30.03 846 24.98 0.5 32.9 40 -11.7 11
15:35 1017 30.03 846 24.98 0.4 32.7 39 -12.1 10.3
15:40 1017 30.03 847 25.01 0.5 32.9 40 -11.5 11.3
15:45 1017 30.03 847 25.01 0.1 32.2 42 -11.4 11.6
15:50 1017 30.03 847 25.01 -0.1 31.9 42 -11.5 11.3
15:55 1017 30.03 847 25.01 0.3 32.5 41 -11.6 11.2
16:00 1017 30.03 847 25.01 0.5 32.8 41 -11.5 11.4
16:05 1017 30.03 847 25.01 0.4 32.8 41 -11.3 11.6
16:10 1017 30.03 847 25.01 0.4 32.8 41 -11.5 11.3
16:15 1018 30.06 847 25.01 0.7 33.2 39 -11.7 11
16:20 1017 30.03 847 25.01 0.7 33.3 39 -11.7 11
16:25 1018 30.06 847 25.01 0.5 32.9 39 -11.8 10.7
16:30 1018 30.06 847 25.01 0.6 33.1 39 -11.8 10.7
16:35 1018 30.06 847 25.01 0.5 32.8 41 -11.3 11.6
16:40 1018 30.06 847 25.01 0.2 32.4 40 -11.8 10.8
16:45 1018 30.06 847 25.01 0.2 32.3 40 -11.8 10.8
16:50 1018 30.06 847 25.01 -0 31.9 41 -11.8 10.7
16:55 1018 30.06 847 25.01 -0.4 31.4 43 -11.4 11.5
17:00 1018 30.06 847 25.01 -0.9 30.5 45 -11.2 11.8
17:05 1018 30.06 847 25.01 -1.4 29.4 46 -11.5 11.3
17:10 1018 30.06 847 25.01 -2.3 27.8 49 -11.7 11
17:15 1018 30.06 847 25.01 -2.7 27.1 49 -11.9 10.5
17:20 1018 30.06 847 25.01 -2.6 27.2 49 -12 10.3
17:25 1018 30.06 847 25.01 -1.8 28.8 47 -11.7 11
17:30 1018 30.06 847 25.01 -1.7 29 48 -11.3 11.7
17:35 1018 30.06 847 25.01 -2.2 28.1 49 -11.4 11.5
17:40 1018 30.06 847 25.01 -3.2 26.2 53 -11.6 11.2
17:45 1018 30.06 847 25.01 -3.4 25.9 53 -11.6 11.1
17:50 1018 30.06 847 25.01 -3.6 25.5 52 -12.1 10.2
17:55 1018 30.06 847 25.01 -3.4 25.9 52 -12 10.4
18:00 1018 30.06 847 25.01 -3.7 25.3 54 -11.8 10.7
18:05 1018 30.06 847 25.01 -4.1 24.6 56 -11.7 10.9
18:10 1018 30.06 847 25.01 -4.8 23.4 59 -11.6 11
18:15 1018 30.06 847 25.01 -4.8 23.4 60 -11.4 11.5
18:20 1018 30.06 847 25.01 -4.3 24.2 54 -12.3 9.8
18:25 1018 30.06 847 25.01 -4 24.8 52 -12.4 9.7
18:30 1018 30.06 848 25.04 -4 24.8 54 -12 10.5
18:35 1018 30.06 848 25.04 -5.1 22.9 59 -11.9 10.5
18:40 1018 30.06 848 25.04 -5.8 21.6 61 -12.2 10.1
18:45 1018 30.06 848 25.04 -5.9 21.4 63 -11.9 10.6
18:50 1018 30.06 848 25.04 -5.9 21.4 64 -11.7 10.9
18:55 1018 30.06 847 25.01 -6 21.2 61 -12.4 9.7
19:00 1018 30.06 847 25.01 -6 21.2 63 -12.1 10.3
19:05 1018 30.06 847 25.01 -6.4 20.6 64 -12.1 10.3
19:10 1018 30.06 847 25.01 -6.6 20.1 66 -11.9 10.6
19:15 1018 30.06 847 25.01 -6.4 20.5 67 -11.6 11.1
19:20 1018 30.06 848 25.04 -6.1 21 64 -11.9 10.7
19:25 1018 30.06 848 25.04 -6.2 20.8 63 -12.2 10.1
19:30 1018 30.06 848 25.04 -6.5 20.3 65 -12.1 10.2
19:35 1018 30.06 848 25.04 -6.9 19.6 66 -12.3 9.9
19:40 1018 30.06 848 25.04 -6.9 19.5 65 -12.4 9.6
19:45 1018 30.06 848 25.04 -6.9 19.6 65 -12.4 9.7
19:50 1018 30.06 848 25.04 -6.9 19.5 67 -12.2 10.1
19:55 1018 30.06 847 25.01 -6.7 19.9 64 -12.5 9.5
20:00 1018 30.06 847 25.01 -6.5 20.4 62 -12.5 9.4
20:05 1018 30.06 848 25.04 -6.3 20.7 62 -12.4 9.7
20:10 1018 30.06 848 25.04 -6.6 20.2 63 -12.6 9.4
20:15 1018 30.06 847 25.01 -6.4 20.4 62 -12.7 9.2
20:20 1018 30.06 847 25.01 -6.4 20.4 62 -12.6 9.4
20:25 1018 30.06 847 25.01 -6.6 20.1 62 -12.7 9.2
20:30 1018 30.06 847 25.01 -6.7 20 63 -12.6 9.2
20:35 1018 30.06 847 25.01 -6.6 20 62 -12.7 9.1
20:40 1018 30.06 848 25.04 -6.7 20 62 -12.7 9.1
20:45 1018 30.06 848 25.04 -6.9 19.6 63 -12.8 8.9
20:50 1018 30.06 848 25.04 -7 19.4 63 -12.9 8.9
20:55 1018 30.06 848 25.04 -7.1 19.3 63 -13 8.7
21:00 1018 30.06 848 25.04 -7.3 18.8 64 -13 8.5
21:05 1018 30.06 848 25.04 -7.3 18.9 63 -13.1 8.4
21:10 1018 30.06 848 25.04 -7.3 18.9 63 -13.1 8.4
21:15 1018 30.06 847 25.01 -7.2 19.1 62 -13.2 8.2
21:20 1018 30.06 847 25.01 -7.1 19.2 62 -13.3 8.1
21:25 1018 30.06 847 25.01 -7.1 19.3 62 -13.2 8.2
21:30 1018 30.06 847 25.01 -7 19.4 61 -13.3 8
21:35 1018 30.06 847 25.01 -7.1 19.3 61 -13.3 8.1
21:40 1018 30.06 847 25.01 -7.2 19 62 -13.4 7.9
21:45 1018 30.06 847 25.01 -7.3 18.8 63 -13.3 8.1
21:50 1018 30.06 847 25.01 -7.5 18.5 63 -13.4 8
21:55 1018 30.06 847 25.01 -7.6 18.4 63 -13.5 7.7
22:00 1018 30.06 847 25.01 -7.5 18.4 63 -13.5 7.7
22:05 1018 30.06 847 25.01 -7.7 18.1 63 -13.6 7.6
22:10 1018 30.06 848 25.04 -7.8 17.9 63 -13.7 7.4
22:15 1018 30.06 848 25.04 -7.8 18 63 -13.7 7.4
22:20 1018 30.06 848 25.04 -7.8 18 63 -13.7 7.3
22:25 1018 30.06 848 25.04 -8 17.6 64 -13.7 7.3
22:30 1018 30.06 848 25.04 -8.3 17.2 64 -13.8 7.1
22:35 1018 30.06 848 25.04 -8.4 16.9 65 -13.9 7
22:40 1018 30.06 848 25.04 -8.4 16.8 65 -13.9 6.9
22:45 1018 30.06 848 25.04 -8.6 16.6 65 -14 6.8
22:50 1018 30.06 848 25.04 -8.6 16.6 65 -14 6.7
22:55 1018 30.06 848 25.04 -8.5 16.8 64 -14.1 6.7
23:00 1019 30.09 848 25.04 -8.2 17.3 63 -13.9 6.9
23:05 1019 30.09 848 25.04 -8.3 17.2 64 -14 6.9
23:10 1019 30.09 848 25.04 -8.6 16.6 65 -14.1 6.6
23:15 1019 30.09 848 25.04 -8.6 16.5 65 -14.1 6.6
23:20 1019 30.09 848 25.04 -8.7 16.4 65 -14.1 6.7
23:25 1019 30.09 848 25.04 -8.6 16.5 66 -13.9 6.9
23:30 1019 30.09 848 25.04 -8.5 16.6 66 -13.8 7.2
23:35 1019 30.09 848 25.04 -8.5 16.8 65 -14 6.8
23:40 1019 30.09 848 25.04 -8.6 16.6 65 -14.1 6.6
23:45 1019 30.09 848 25.04 -8.7 16.4 65 -14.1 6.6
23:50 1019 30.09 848 25.04 -8.9 16.1 66 -14.1 6.7
23:55 1019 30.09 848 25.04 -8.9 15.9 66 -14.2 6.4
24:00 1019 30.09 848 25.04 -8.7 16.3 65 -14.2 6.5